Miccosukee, Florida
Current Conditions -  °F | °C
As of 11:53 AM on Saturday 20 Dec 2014 (Local Time) from KTLH Reporting Station
Overcast Overcast  
Wind Chill: 55°   Ceiling: 7000
Heat Index: 55°   Visibility: 10mi
Dew Point: 47°   Wind: 7mph
Humidity: 74%   Direction: 30°NNE
Pressure: 30.16"   Gusts: NA
Location:  30.59°N, 84.04°W
Report Text: KTLH 201553Z 03006KT 10SM OVC070 13/08 A3016 RMK AO2 SLP213 T01280083 $
Loading
Personal Weather Stations






























Interactive Weather Map New forecast layout! Learn more

10-Day Weather Forecast

Advertisements
Track Severe Weather on mobile